»·PEaware :: WAT306 KPDX-KBZN

WAT306 :: KPDX-KBZN

FLIGHT INFORMATION

Flight Status: Arrived
Operator:
Walker Air Transport
More flights by this operator :: More flights under this callsign
Pilot: Ethan S. (29221)
Aircraft: SOCATA TBM-900
(TBM9)
More flights by this aircraft type
Origin: KPDX Portland Intl
United States
Destination: KBZN Gallatin
United States
More flights between these airports :: More routes between these airports
Route: +PTLD1 BTG J16 HIA
File this flight plan on PilotEdge
Remarks:
Altitude:
(Current/Filed)
31,000ft
Speed:
(Current/Filed)
320kts
Departed: 22-Oct-20 06:12 PM
Arrived: 22-Oct-20 07:44 PM
Distance/Time
Traveled:
479nm/1:31
Distance/Time
To Go:
Arrived

Flight Plot

Page will automatically refresh every two minutes.

Flight plan parsing failed; only flown route is shown


Map Options




Map Legend


Flown Route
Filed Route
Departure Airport
Arrival Airport
Navaid (VOR, NDB)
Fix

Horizontal Profiles

Position Reports

Time Latitude Longitude Heading Altitude Ground
Speed
22-Oct-20 17:44 45.585609 -122.578064 27 19ft 0kts
22-Oct-20 17:45 45.585609 -122.578064 27 19ft 0kts
22-Oct-20 17:46 45.585609 -122.578064 27 19ft 0kts
22-Oct-20 17:47 45.585609 -122.578064 27 19ft 0kts
22-Oct-20 17:48 45.585609 -122.578064 27 19ft 0kts
22-Oct-20 17:49 45.585609 -122.578064 27 19ft 0kts
22-Oct-20 17:50 45.585609 -122.578064 27 19ft 0kts
22-Oct-20 17:51 45.585609 -122.578064 27 19ft 0kts
22-Oct-20 17:52 45.585609 -122.578064 27 19ft 0kts
22-Oct-20 17:52 45.585609 -122.578064 27 19ft 0kts
22-Oct-20 17:54 45.585609 -122.578064 27 19ft 0kts
22-Oct-20 17:54 45.585609 -122.578064 27 19ft 0kts
22-Oct-20 17:56 45.585609 -122.578064 27 19ft 0kts
22-Oct-20 17:56 45.585609 -122.578064 27 19ft 0kts
22-Oct-20 17:57 45.585609 -122.578064 27 19ft 0kts
22-Oct-20 17:58 45.585609 -122.578064 27 19ft 0kts
22-Oct-20 17:59 45.585609 -122.578064 27 19ft 0kts
22-Oct-20 18:00 45.585609 -122.578064 27 19ft 0kts
22-Oct-20 18:01 45.586213 -122.576818 302 19ft 9kts
22-Oct-20 18:02 45.588018 -122.581439 299 19ft 12kts
22-Oct-20 18:03 45.590136 -122.586884 298 19ft 15kts
22-Oct-20 18:04 45.592290 -122.592407 298 19ft 15kts
22-Oct-20 18:05 45.594228 -122.597447 298 23ft 12kts
22-Oct-20 18:06 45.594509 -122.597441 42 23ft 0kts
22-Oct-20 18:07 45.594509 -122.597441 42 23ft 0kts
22-Oct-20 18:08 45.594509 -122.597441 42 23ft 0kts
22-Oct-20 18:09 45.594509 -122.597441 42 23ft 0kts
22-Oct-20 18:10 45.594513 -122.597435 42 23ft 1kts
22-Oct-20 18:11 45.589284 -122.581557 119 101ft 112kts
22-Oct-20 18:12 45.586096 -122.532532 74 2026ft 126kts
22-Oct-20 18:13 45.594626 -122.483341 74 3908ft 129kts
22-Oct-20 18:14 45.603229 -122.432387 74 5995ft 141kts
22-Oct-20 18:15 45.610838 -122.357919 84 7101ft 170kts
22-Oct-20 18:16 45.613177 -122.300305 84 9615ft 143kts
22-Oct-20 18:17 45.615501 -122.242254 84 11847ft 147kts
22-Oct-20 18:18 45.617829 -122.180994 80 14057ft 157kts
22-Oct-20 18:19 45.620824 -122.108197 80 15058ft 226kts
22-Oct-20 18:20 45.623967 -122.017463 76 17155ft 181kts
22-Oct-20 18:21 45.626692 -121.947936 72 19241ft 181kts
22-Oct-20 18:22 45.629396 -121.874366 69 21458ft 188kts
22-Oct-20 18:23 45.632211 -121.796730 67 23562ft 199kts
22-Oct-20 18:24 45.635125 -121.714556 65 25645ft 209kts
22-Oct-20 18:25 45.638178 -121.628152 64 27555ft 225kts
22-Oct-20 18:26 45.641227 -121.536196 63 29743ft 234kts
22-Oct-20 18:27 45.644570 -121.439489 62 31383ft 260kts
22-Oct-20 18:28 45.648506 -121.317859 69 31374ft 330kts
22-Oct-20 18:29 45.652672 -121.179079 70 31366ft 354kts
22-Oct-20 18:30 45.656891 -121.034850 69 31350ft 362kts
22-Oct-20 18:31 45.661027 -120.889330 69 31354ft 363kts
22-Oct-20 18:32 45.664993 -120.742864 69 31354ft 365kts
22-Oct-20 18:33 45.668775 -120.595912 69 31360ft 365kts
22-Oct-20 18:34 45.672380 -120.448821 69 31360ft 366kts
22-Oct-20 18:35 45.675804 -120.301476 70 31344ft 366kts
22-Oct-20 18:36 45.679027 -120.153822 70 31337ft 365kts
22-Oct-20 18:37 45.682072 -120.006639 70 31317ft 366kts
22-Oct-20 18:38 45.684901 -119.859983 70 31317ft 365kts
22-Oct-20 18:39 45.687563 -119.712758 70 31320ft 365kts
22-Oct-20 18:40 45.690032 -119.565708 70 31321ft 366kts
22-Oct-20 18:41 45.692330 -119.417994 70 31322ft 367kts
22-Oct-20 18:42 45.694415 -119.270226 71 31308ft 367kts
22-Oct-20 18:43 45.696324 -119.122235 71 31302ft 367kts
22-Oct-20 18:44 45.698117 -118.974294 72 31299ft 367kts
22-Oct-20 18:45 45.704446 -118.827726 72 31297ft 362kts
22-Oct-20 18:46 45.711976 -118.681572 72 31304ft 362kts
22-Oct-20 18:47 45.719476 -118.534637 73 31302ft 362kts
22-Oct-20 18:48 45.726823 -118.386792 73 31300ft 364kts
22-Oct-20 18:49 45.733955 -118.238937 73 31288ft 363kts
22-Oct-20 18:50 45.740914 -118.091444 73 31293ft 362kts
22-Oct-20 18:51 45.747631 -117.944668 73 31281ft 362kts
22-Oct-20 18:52 45.754191 -117.797164 73 31267ft 363kts
22-Oct-20 18:53 45.760581 -117.649059 73 31255ft 364kts
22-Oct-20 18:54 45.766837 -117.499215 73 31248ft 364kts
22-Oct-20 18:55 45.772906 -117.349512 74 31254ft 364kts
22-Oct-20 18:56 45.778717 -117.201483 74 31247ft 364kts
22-Oct-20 18:57 45.784405 -117.053066 76 31250ft 363kts
22-Oct-20 18:58 45.789805 -116.905752 78 31256ft 362kts
22-Oct-20 18:59 45.794969 -116.757712 78 31249ft 360kts
22-Oct-20 19:00 45.799955 -116.611113 78 31238ft 360kts
22-Oct-20 19:01 45.804788 -116.463692 78 31238ft 360kts
22-Oct-20 19:02 45.809441 -116.315719 79 31231ft 360kts
22-Oct-20 19:03 45.813855 -116.169238 79 31232ft 359kts
22-Oct-20 19:04 45.818055 -116.023676 79 31234ft 359kts
22-Oct-20 19:05 45.822114 -115.876705 79 31235ft 359kts
22-Oct-20 19:06 45.826024 -115.728227 79 31236ft 359kts
22-Oct-20 19:07 45.829715 -115.580260 79 31238ft 360kts
22-Oct-20 19:08 45.833264 -115.430551 79 31240ft 360kts
22-Oct-20 19:09 45.836583 -115.282890 80 31231ft 360kts
22-Oct-20 19:10 45.839702 -115.136114 80 31233ft 360kts
22-Oct-20 19:11 45.842604 -114.989678 82 31235ft 359kts
22-Oct-20 19:12 45.845279 -114.843231 82 31206ft 359kts
22-Oct-20 19:13 45.847793 -114.697043 82 31164ft 359kts
22-Oct-20 19:14 45.850136 -114.549890 82 31165ft 358kts
22-Oct-20 19:15 45.852288 -114.402827 82 31166ft 358kts
22-Oct-20 19:16 45.854240 -114.256872 83 31159ft 357kts
22-Oct-20 19:17 45.856008 -114.110469 83 31160ft 357kts
22-Oct-20 19:18 45.857577 -113.965335 83 31162ft 357kts
22-Oct-20 19:19 45.858972 -113.819126 83 31163ft 358kts
22-Oct-20 19:20 45.860185 -113.672394 83 31164ft 358kts
22-Oct-20 19:21 45.861208 -113.525945 83 31165ft 358kts
22-Oct-20 19:22 45.862040 -113.380045 83 31198ft 358kts
22-Oct-20 19:23 45.862701 -113.232489 84 30878ft 368kts
22-Oct-20 19:24 45.863177 -113.078003 83 29354ft 380kts
22-Oct-20 19:25 45.863471 -112.924069 83 27769ft 370kts
22-Oct-20 19:26 45.863533 -112.772934 84 26203ft 367kts
22-Oct-20 19:27 45.863387 -112.624024 84 24652ft 361kts
22-Oct-20 19:28 45.863055 -112.481770 83 24222ft 331kts
22-Oct-20 19:30 45.862640 -112.348394 84 23865ft 330kts
22-Oct-20 19:31 45.862014 -112.209213 84 22312ft 340kts
22-Oct-20 19:32 45.854255 -112.073572 91 20733ft 327kts
22-Oct-20 19:33 45.843718 -111.941310 91 19156ft 318kts
22-Oct-20 19:34 45.842830 -111.816441 49 17514ft 296kts
22-Oct-20 19:35 45.906330 -111.740315 36 14958ft 281kts
22-Oct-20 19:36 45.936921 -111.638746 76 12311ft 282kts
22-Oct-20 19:37 45.949135 -111.528305 102 9677ft 260kts
22-Oct-20 19:38 45.931304 -111.435748 101 8802ft 216kts
22-Oct-20 19:39 45.911985 -111.340263 124 7327ft 254kts
22-Oct-20 19:40 45.861689 -111.269117 134 6387ft 220kts
22-Oct-20 19:41 45.824440 -111.217144 135 5444ft 134kts
22-Oct-20 19:42 45.802852 -111.187046 135 4871ft 102kts
22-Oct-20 19:43 45.783286 -111.159873 136 4442ft 59kts
22-Oct-20 19:44 45.778416 -111.156593 224 4452ft 13kts
22-Oct-20 19:45 45.774254 -111.152454 185 4460ft 11kts
22-Oct-20 19:46 45.773423 -111.153032 36 4461ft 0kts
22-Oct-20 19:46 45.773423 -111.153032 36 4461ft 0kts

Navigation Log

Ident Type
Flight plan parsing failed, navigation log unavailable